Time;durP1;ratioP1;P1;durP2;ratioP2;P2;SDS_P1;SDS_P2;PMS_P1;PMS_P2;Temp;Humidity;BMP_temperature;BMP_pressure;BME280_temperature;BME280_humidity;BME280_pressure;Samples;Min_cycle;Max_cycle;Signal;HPM_P1;HPM_P2
2024/01/04 00:01:54;;;;;;;5.60;2.42;;;7.30;99.90;;;;;;4915303;29;20382;-63
2024/01/04 00:04:20;;;;;;;4.13;2.20;;;7.50;99.90;;;;;;4915452;29;20066;-63
2024/01/04 00:06:46;;;;;;;4.53;1.90;;;7.30;99.90;;;;;;4914854;29;20059;-63
2024/01/04 00:09:12;;;;;;;5.65;2.38;;;7.40;99.90;;;;;;4915597;29;20059;-64
2024/01/04 00:11:39;;;;;;;3.40;2.10;;;7.30;99.90;;;;;;4915700;29;20373;-63
2024/01/04 00:14:07;;;;;;;6.60;2.38;;;7.40;99.90;;;;;;4915231;29;20048;-63
2024/01/04 00:16:33;;;;;;;4.28;1.80;;;7.30;99.90;;;;;;4914966;29;20060;-63
2024/01/04 00:19:00;;;;;;;4.32;1.83;;;7.40;99.90;;;;;;4914855;29;20048;-63
2024/01/04 00:21:26;;;;;;;6.35;1.60;;;7.30;99.90;;;;;;4899847;29;20060;-63
2024/01/04 00:23:52;;;;;;;5.35;2.10;;;7.20;99.90;;;;;;4914790;29;20056;-64
2024/01/04 00:26:22;;;;;;;4.47;1.30;;;7.20;99.90;;;;;;4915223;29;20075;-63
2024/01/04 00:28:48;;;;;;;5.93;1.58;;;7.20;99.90;;;;;;4915427;29;20354;-63
2024/01/04 00:31:19;;;;;;;3.58;1.45;;;7.30;99.90;;;;;;4899396;29;20091;-63
2024/01/04 00:33:46;;;;;;;4.25;1.80;;;7.20;99.90;;;;;;4913510;29;20052;-64
2024/01/04 00:36:13;;;;;;;2.47;0.95;;;7.10;99.90;;;;;;4914798;29;20066;-63
2024/01/04 00:38:40;;;;;;;3.20;0.98;;;7.10;99.90;;;;;;4914316;29;20052;-63
2024/01/04 00:41:06;;;;;;;4.35;1.00;;;7.10;99.90;;;;;;4898820;29;20056;-64
2024/01/04 00:43:33;;;;;;;3.33;1.00;;;7.10;99.90;;;;;;4914535;29;20055;-63
2024/01/04 00:45:59;;;;;;;4.20;1.05;;;7.10;99.90;;;;;;4899112;29;20139;-64
2024/01/04 00:48:26;;;;;;;4.25;1.20;;;7.10;99.90;;;;;;4898478;29;20509;-63
2024/01/04 00:50:52;;;;;;;2.13;1.02;;;7.00;99.90;;;;;;4914449;29;20155;-64
2024/01/04 00:53:21;;;;;;;6.53;1.35;;;7.00;99.90;;;;;;4898693;29;20428;-63
2024/01/04 00:55:47;;;;;;;3.35;1.30;;;6.90;99.90;;;;;;4914827;29;20052;-63
2024/01/04 00:58:14;;;;;;;3.40;1.05;;;7.00;99.90;;;;;;4914117;29;20080;-63
2024/01/04 01:00:41;;;;;;;3.88;1.20;;;6.90;99.90;;;;;;4914879;29;20542;-63
2024/01/04 01:03:07;;;;;;;6.43;1.33;;;6.90;99.90;;;;;;4898323;29;20044;-64
2024/01/04 01:05:35;;;;;;;1.42;1.00;;;7.00;99.90;;;;;;4914391;29;20091;-65
2024/01/04 01:08:01;;;;;;;4.15;0.88;;;7.00;99.90;;;;;;4913748;29;20499;-63
2024/01/04 01:10:29;;;;;;;2.90;1.10;;;6.90;99.90;;;;;;4898693;29;20369;-64
2024/01/04 01:12:56;;;;;;;3.22;1.05;;;6.90;99.90;;;;;;4914345;29;20055;-63
2024/01/04 01:15:22;;;;;;;2.25;1.02;;;6.90;99.90;;;;;;4914218;29;20090;-63
2024/01/04 01:17:48;;;;;;;4.13;1.10;;;6.90;99.90;;;;;;4913869;29;20392;-62
2024/01/04 01:20:16;;;;;;;7.40;1.50;;;6.90;99.90;;;;;;4914281;29;20063;-63
2024/01/04 01:22:44;;;;;;;5.45;1.30;;;6.90;99.90;;;;;;4914898;29;20067;-63
2024/01/04 01:25:10;;;;;;;2.35;1.10;;;6.90;99.90;;;;;;4914456;29;20067;-64
2024/01/04 01:27:37;;;;;;;5.13;1.10;;;7.00;99.90;;;;;;4929295;29;20059;-63
2024/01/04 01:30:04;;;;;;;2.45;0.93;;;6.90;99.90;;;;;;4919974;29;20044;-64
2024/01/04 01:32:30;;;;;;;4.00;1.40;;;6.80;99.90;;;;;;4887367;29;20350;-65
2024/01/04 01:34:57;;;;;;;3.15;1.42;;;6.80;99.90;;;;;;4906366;29;20377;-63
2024/01/04 01:37:23;;;;;;;4.97;1.65;;;6.80;99.90;;;;;;4897308;29;20044;-64
2024/01/04 01:39:50;;;;;;;2.78;1.00;;;6.80;99.90;;;;;;4894898;29;20052;-64
2024/01/04 01:42:20;;;;;;;3.33;1.10;;;6.80;99.90;;;;;;4879532;29;20051;-63
2024/01/04 01:44:47;;;;;;;2.80;0.95;;;6.80;99.90;;;;;;4903676;29;20354;-62
2024/01/04 01:47:14;;;;;;;6.93;1.30;;;6.80;99.90;;;;;;4902590;29;20063;-64
2024/01/04 01:49:42;;;;;;;4.70;1.10;;;6.80;99.90;;;;;;4888264;29;20056;-64
2024/01/04 01:52:09;;;;;;;3.47;0.80;;;6.70;99.90;;;;;;4904265;29;20059;-64
2024/01/04 01:54:36;;;;;;;2.75;1.00;;;6.70;99.90;;;;;;4906861;29;20058;-64
2024/01/04 01:57:03;;;;;;;1.83;1.00;;;6.80;99.90;;;;;;4902892;29;20050;-64
2024/01/04 01:59:29;;;;;;;4.05;1.02;;;6.70;99.90;;;;;;4902864;29;20040;-64
2024/01/04 02:01:58;;;;;;;4.18;0.80;;;6.70;99.90;;;;;;4902271;29;20058;-64
2024/01/04 02:04:24;;;;;;;3.22;0.90;;;6.70;99.90;;;;;;4917849;29;20054;-64
2024/01/04 02:06:51;;;;;;;3.10;0.98;;;6.70;99.90;;;;;;4904295;29;20386;-64
2024/01/04 02:09:18;;;;;;;2.42;0.75;;;6.70;99.90;;;;;;4902800;29;20080;-63
2024/01/04 02:11:47;;;;;;;1.55;0.60;;;6.70;99.90;;;;;;4903142;29;20078;-63
2024/01/04 02:14:13;;;;;;;2.30;1.00;;;6.70;99.90;;;;;;4905492;29;20048;-63
2024/01/04 02:16:40;;;;;;;3.50;1.00;;;6.70;99.90;;;;;;4904179;29;20052;-63
2024/01/04 02:19:09;;;;;;;2.03;0.70;;;6.70;99.90;;;;;;4911959;29;20056;-63
2024/01/04 02:21:37;;;;;;;2.20;0.73;;;6.70;99.90;;;;;;4912989;29;20060;-63
2024/01/04 02:24:05;;;;;;;1.75;0.90;;;6.70;99.90;;;;;;4893731;29;20048;-63
2024/01/04 02:26:31;;;;;;;1.27;0.60;;;6.70;99.90;;;;;;4911947;29;20567;-63
2024/01/04 02:28:58;;;;;;;2.40;0.80;;;6.70;99.90;;;;;;4936262;29;20044;-64
2024/01/04 02:31:24;;;;;;;3.83;1.38;;;6.70;99.90;;;;;;4919976;29;20059;-64
2024/01/04 02:33:51;;;;;;;2.70;0.90;;;6.70;99.90;;;;;;4910544;29;20051;-63
2024/01/04 02:36:17;;;;;;;3.53;0.90;;;6.60;99.90;;;;;;4911696;29;20040;-62
2024/01/04 02:38:44;;;;;;;4.63;1.40;;;6.70;99.90;;;;;;4936261;29;20060;-64
2024/01/04 02:41:11;;;;;;;2.50;0.90;;;6.70;99.90;;;;;;4911863;29;20059;-65
2024/01/04 02:43:37;;;;;;;2.15;0.77;;;6.70;99.90;;;;;;4910385;29;20048;-63
2024/01/04 02:46:04;;;;;;;2.40;0.80;;;6.70;99.90;;;;;;4935931;29;20048;-62
2024/01/04 02:48:31;;;;;;;2.65;0.85;;;6.60;99.90;;;;;;4935482;29;20051;-63
2024/01/04 02:50:58;;;;;;;3.72;0.85;;;6.60;99.90;;;;;;4913007;29;20338;-64
2024/01/04 02:53:25;;;;;;;3.90;1.30;;;6.70;99.90;;;;;;4911734;29;20398;-63
2024/01/04 02:55:51;;;;;;;4.18;1.13;;;6.60;99.90;;;;;;4920016;29;20411;-63
2024/01/04 02:58:18;;;;;;;2.50;0.80;;;6.60;99.90;;;;;;4935221;29;20433;-64
2024/01/04 03:00:44;;;;;;;2.30;1.00;;;6.70;99.90;;;;;;4912275;29;20084;-63
2024/01/04 03:03:10;;;;;;;2.38;0.90;;;6.60;99.90;;;;;;4934067;29;20056;-64
2024/01/04 03:05:36;;;;;;;3.33;1.00;;;6.70;99.90;;;;;;4912000;29;20066;-64
2024/01/04 03:08:03;;;;;;;4.28;1.13;;;6.70;99.90;;;;;;4911262;29;20059;-64
2024/01/04 03:10:29;;;;;;;4.88;1.00;;;6.60;99.90;;;;;;4912152;29;20532;-64
2024/01/04 03:12:56;;;;;;;3.17;1.58;;;6.60;99.90;;;;;;4919417;29;20141;-64
2024/01/04 03:15:25;;;;;;;3.47;1.05;;;6.60;99.90;;;;;;4911944;29;20405;-64
2024/01/04 03:17:51;;;;;;;2.83;1.23;;;6.60;99.90;;;;;;4912539;29;20044;-64
2024/01/04 03:20:18;;;;;;;5.63;1.30;;;6.50;99.90;;;;;;4928230;29;20460;-63
2024/01/04 03:22:44;;;;;;;2.85;0.95;;;6.60;99.90;;;;;;4943735;29;20086;-63
2024/01/04 03:25:10;;;;;;;2.85;1.00;;;6.50;99.90;;;;;;4913799;29;20063;-63
2024/01/04 03:27:37;;;;;;;3.50;0.90;;;6.50;99.90;;;;;;4895838;29;20048;-64
2024/01/04 03:30:05;;;;;;;3.65;1.05;;;6.50;99.90;;;;;;4912001;29;20286;-63
2024/01/04 03:32:31;;;;;;;4.38;0.98;;;6.50;99.90;;;;;;4912202;29;20516;-64
2024/01/04 03:34:58;;;;;;;3.22;1.08;;;6.50;99.90;;;;;;4911509;29;20052;-64
2024/01/04 03:37:25;;;;;;;3.28;1.10;;;6.50;99.90;;;;;;4911352;29;20059;-63
2024/01/04 03:39:53;;;;;;;4.00;1.45;;;6.50;99.90;;;;;;4911850;29;20052;-64
2024/01/04 03:42:19;;;;;;;3.20;1.02;;;6.50;99.90;;;;;;4912065;29;20067;-64
2024/01/04 03:44:46;;;;;;;4.47;0.90;;;6.50;99.90;;;;;;4912144;29;20051;-64
2024/01/04 03:47:12;;;;;;;1.42;0.80;;;6.50;99.90;;;;;;4912144;29;20455;-64
2024/01/04 03:49:38;;;;;;;3.38;1.00;;;6.50;99.90;;;;;;4896262;29;20051;-64
2024/01/04 03:52:05;;;;;;;1.92;0.85;;;6.50;99.90;;;;;;4911658;29;20764;-64
2024/01/04 03:54:31;;;;;;;4.10;1.00;;;6.50;99.90;;;;;;4911926;29;20056;-62
2024/01/04 03:56:57;;;;;;;3.17;1.10;;;6.50;99.90;;;;;;4911478;29;20048;-64
2024/01/04 03:59:24;;;;;;;1.75;0.90;;;6.40;99.90;;;;;;4927831;29;20052;-64
2024/01/04 04:01:50;;;;;;;2.88;0.88;;;6.40;99.90;;;;;;4911805;29;20062;-63
2024/01/04 04:04:17;;;;;;;1.50;0.88;;;6.40;99.90;;;;;;4912736;29;20062;-64
2024/01/04 04:06:44;;;;;;;4.18;1.27;;;6.40;99.90;;;;;;4911675;29;20052;-63
2024/01/04 04:09:13;;;;;;;5.72;1.08;;;6.30;99.90;;;;;;4915056;29;20404;-64
2024/01/04 04:11:40;;;;;;;4.25;1.55;;;6.30;99.90;;;;;;4916153;29;20429;-64
2024/01/04 04:14:09;;;;;;;4.57;1.30;;;6.20;99.90;;;;;;4916129;29;20063;-65
2024/01/04 04:16:40;;;;;;;3.30;1.27;;;6.30;99.90;;;;;;4915275;29;20788;-64
2024/01/04 04:19:07;;;;;;;3.13;1.10;;;6.20;99.90;;;;;;4915371;29;20052;-64
2024/01/04 04:21:34;;;;;;;3.40;1.10;;;6.20;99.90;;;;;;4916098;29;20048;-64
2024/01/04 04:24:00;;;;;;;4.05;1.23;;;6.20;99.90;;;;;;4938974;29;20504;-64
2024/01/04 04:26:27;;;;;;;5.05;1.30;;;6.20;99.90;;;;;;4914954;29;20060;-64
2024/01/04 04:28:53;;;;;;;3.10;1.00;;;6.20;99.90;;;;;;4914985;29;20056;-65
2024/01/04 04:31:19;;;;;;;4.32;1.17;;;6.20;99.90;;;;;;4914889;29;20055;-64
2024/01/04 04:33:47;;;;;;;2.05;1.23;;;6.20;99.90;;;;;;4914697;29;20056;-64
2024/01/04 04:36:17;;;;;;;5.15;1.50;;;6.20;99.90;;;;;;4930553;29;20052;-65
2024/01/04 04:38:43;;;;;;;4.35;1.20;;;6.20;99.90;;;;;;4915100;29;20063;-65
2024/01/04 04:41:10;;;;;;;4.07;1.08;;;6.20;99.90;;;;;;4914586;29;20063;-64
2024/01/04 04:43:36;;;;;;;1.83;0.82;;;6.20;99.90;;;;;;4914414;29;20060;-65
2024/01/04 04:46:08;;;;;;;2.63;0.98;;;6.20;99.90;;;;;;4914396;29;20389;-64
2024/01/04 04:48:36;;;;;;;2.53;1.00;;;6.20;99.90;;;;;;4914688;29;20055;-65
2024/01/04 04:51:02;;;;;;;3.60;1.02;;;6.20;99.90;;;;;;4914448;29;20052;-64
2024/01/04 04:53:29;;;;;;;5.55;1.40;;;6.20;99.90;;;;;;4914034;29;20048;-65
2024/01/04 04:55:55;;;;;;;3.40;1.30;;;6.10;99.90;;;;;;4914458;29;20048;-65
2024/01/04 04:58:21;;;;;;;6.63;1.10;;;6.20;99.90;;;;;;4914620;29;20060;-64
2024/01/04 05:00:48;;;;;;;4.47;1.00;;;6.20;99.90;;;;;;4914398;29;20052;-65
2024/01/04 05:03:15;;;;;;;5.82;1.20;;;6.20;99.90;;;;;;4914237;29;20052;-66
2024/01/04 05:05:42;;;;;;;3.88;1.25;;;6.20;99.90;;;;;;4914231;29;20058;-65
2024/01/04 05:08:08;;;;;;;2.50;1.00;;;6.10;99.90;;;;;;4898330;29;20079;-65
2024/01/04 05:10:34;;;;;;;2.45;1.48;;;6.10;99.90;;;;;;4914093;29;20051;-64
2024/01/04 05:13:01;;;;;;;3.00;1.13;;;6.10;99.90;;;;;;4898232;29;20048;-63
2024/01/04 05:15:28;;;;;;;3.45;1.10;;;6.20;99.90;;;;;;4930087;29;20059;-64
2024/01/04 05:17:54;;;;;;;4.00;1.30;;;6.10;99.90;;;;;;4930097;29;20048;-65
2024/01/04 05:20:21;;;;;;;2.17;0.90;;;6.10;99.90;;;;;;4913565;29;20063;-63
2024/01/04 05:22:48;;;;;;;5.32;0.98;;;6.10;99.90;;;;;;4929557;29;20061;-64
2024/01/04 05:25:17;;;;;;;2.00;0.90;;;6.10;99.90;;;;;;4895273;29;20486;-63
2024/01/04 05:27:43;;;;;;;9.32;1.42;;;6.10;99.90;;;;;;4895107;29;20079;-64
2024/01/04 05:30:10;;;;;;;3.15;1.08;;;6.10;99.90;;;;;;4895242;29;20076;-64
2024/01/04 05:32:37;;;;;;;3.42;1.05;;;6.10;99.90;;;;;;4894973;29;20155;-63
2024/01/04 05:35:04;;;;;;;3.72;1.20;;;6.10;99.90;;;;;;4912638;29;20120;-63
2024/01/04 05:37:30;;;;;;;2.20;1.35;;;6.10;99.90;;;;;;4913080;29;20556;-65
2024/01/04 05:39:57;;;;;;;4.05;1.60;;;6.20;99.90;;;;;;4897813;29;20048;-64
2024/01/04 05:42:23;;;;;;;3.80;1.27;;;6.10;99.90;;;;;;4913917;29;20048;-65
2024/01/04 05:44:50;;;;;;;3.10;1.27;;;6.20;99.90;;;;;;4913475;29;20059;-65
2024/01/04 05:47:16;;;;;;;5.28;1.45;;;6.20;99.90;;;;;;4913078;29;20488;-65
2024/01/04 05:49:42;;;;;;;2.17;0.90;;;6.20;99.90;;;;;;4913580;29;20083;-64
2024/01/04 05:52:08;;;;;;;2.50;0.93;;;6.10;99.90;;;;;;4913208;29;20132;-65
2024/01/04 05:54:35;;;;;;;2.88;0.90;;;6.10;99.90;;;;;;4913064;29;20470;-63
2024/01/04 05:57:01;;;;;;;4.50;1.40;;;6.10;99.90;;;;;;4897590;29;20059;-64
2024/01/04 05:59:27;;;;;;;1.88;0.90;;;6.10;99.90;;;;;;4913224;29;20477;-65
2024/01/04 06:01:54;;;;;;;5.22;1.30;;;6.10;99.90;;;;;;4897738;29;20465;-65
2024/01/04 06:04:21;;;;;;;1.45;0.95;;;6.10;99.90;;;;;;4897163;29;20048;-64
2024/01/04 06:06:47;;;;;;;4.93;1.40;;;6.10;99.90;;;;;;4911565;29;20052;-64
2024/01/04 06:09:13;;;;;;;2.45;0.90;;;6.10;99.90;;;;;;4934454;29;20469;-64
2024/01/04 06:11:40;;;;;;;4.28;1.15;;;6.10;99.90;;;;;;4912922;29;20082;-64
2024/01/04 06:14:06;;;;;;;3.30;1.00;;;6.00;99.90;;;;;;4896652;29;20067;-63
2024/01/04 06:16:33;;;;;;;7.57;1.17;;;6.00;99.90;;;;;;4912214;29;20115;-64
2024/01/04 06:18:59;;;;;;;1.70;0.85;;;6.00;99.90;;;;;;4944443;29;20055;-66
2024/01/04 06:21:25;;;;;;;2.95;0.82;;;6.00;99.90;;;;;;4913025;29;20658;-65
2024/01/04 06:23:52;;;;;;;4.10;1.15;;;6.00;99.90;;;;;;4912540;29;20056;-65
2024/01/04 06:26:19;;;;;;;3.17;0.95;;;6.00;99.90;;;;;;4912799;29;20072;-65
2024/01/04 06:28:45;;;;;;;4.32;0.90;;;6.00;99.90;;;;;;4927710;29;20369;-65
2024/01/04 06:31:12;;;;;;;2.70;1.10;;;6.00;99.90;;;;;;4908369;29;20405;-64
2024/01/04 06:33:38;;;;;;;2.45;1.00;;;6.00;99.90;;;;;;4896624;29;20048;-63
2024/01/04 06:36:06;;;;;;;2.67;0.90;;;6.00;99.90;;;;;;4895395;29;20059;-64
2024/01/04 06:38:35;;;;;;;3.88;1.48;;;6.00;99.90;;;;;;4912274;29;20512;-64
2024/01/04 06:41:04;;;;;;;6.30;2.10;;;6.00;99.90;;;;;;4911455;29;20056;-63
2024/01/04 06:43:31;;;;;;;6.35;1.27;;;6.00;99.90;;;;;;4913348;29;20056;-62
2024/01/04 06:45:58;;;;;;;3.05;1.30;;;5.90;99.90;;;;;;4893656;29;20137;-63
2024/01/04 06:48:24;;;;;;;3.92;0.93;;;5.90;99.90;;;;;;4912698;29;20055;-63
2024/01/04 06:50:52;;;;;;;2.15;0.90;;;5.90;99.90;;;;;;4912023;29;20087;-63
2024/01/04 06:53:18;;;;;;;1.98;1.15;;;6.00;99.90;;;;;;4913222;29;20063;-64
2024/01/04 06:55:44;;;;;;;2.47;1.27;;;5.90;99.90;;;;;;4911738;29;20040;-64
2024/01/04 06:58:11;;;;;;;2.63;0.95;;;5.90;99.90;;;;;;4911211;29;20067;-62
2024/01/04 07:00:38;;;;;;;3.53;1.10;;;5.90;99.90;;;;;;4913374;29;20056;-62
2024/01/04 07:03:05;;;;;;;2.40;1.10;;;5.90;99.90;;;;;;4910689;29;20052;-64
2024/01/04 07:05:31;;;;;;;3.88;1.20;;;5.80;99.90;;;;;;4911943;29;20059;-64
2024/01/04 07:07:58;;;;;;;3.53;1.10;;;5.80;99.90;;;;;;4913150;29;20052;-62
2024/01/04 07:10:24;;;;;;;3.40;1.40;;;5.80;99.90;;;;;;4913531;29;20052;-63
2024/01/04 07:12:51;;;;;;;1.65;1.15;;;5.80;99.90;;;;;;4912045;29;20423;-64
2024/01/04 07:15:17;;;;;;;3.28;1.20;;;5.80;99.90;;;;;;4928256;29;20056;-64
2024/01/04 07:17:43;;;;;;;5.85;1.30;;;5.80;99.90;;;;;;4912079;29;20052;-63
2024/01/04 07:20:10;;;;;;;2.75;1.20;;;5.80;99.90;;;;;;4912427;29;20735;-63
2024/01/04 07:22:37;;;;;;;3.58;1.20;;;5.80;99.90;;;;;;4912231;29;20056;-64
2024/01/04 07:25:04;;;;;;;2.45;1.20;;;5.80;99.90;;;;;;4910450;29;20044;-62
2024/01/04 07:27:30;;;;;;;3.75;1.30;;;5.80;99.90;;;;;;4914795;29;20537;-62
2024/01/04 07:29:59;;;;;;;3.75;1.60;;;5.70;99.90;;;;;;4915322;29;20091;-66
2024/01/04 07:32:25;;;;;;;2.88;1.13;;;5.70;99.90;;;;;;4914005;29;20048;-65
2024/01/04 07:34:51;;;;;;;2.38;1.20;;;5.70;99.90;;;;;;4914839;29;20044;-64
2024/01/04 07:37:18;;;;;;;3.50;1.00;;;5.70;99.90;;;;;;4913812;29;20099;-66
2024/01/04 07:39:45;;;;;;;4.93;1.20;;;5.80;99.90;;;;;;4915340;29;20052;-65
2024/01/04 07:42:14;;;;;;;4.45;1.10;;;5.80;99.90;;;;;;4915462;29;20112;-66
2024/01/04 07:44:40;;;;;;;2.15;1.10;;;5.70;99.90;;;;;;4918438;29;20143;-63
2024/01/04 07:47:08;;;;;;;1.95;1.27;;;5.80;99.90;;;;;;4901845;29;20054;-62
2024/01/04 07:49:34;;;;;;;3.85;1.20;;;5.70;99.90;;;;;;4917921;29;20052;-61
2024/01/04 07:52:01;;;;;;;4.05;1.40;;;5.70;99.90;;;;;;4917278;29;20488;-63
2024/01/04 07:54:27;;;;;;;2.78;1.27;;;5.70;99.90;;;;;;4918377;29;20476;-62
2024/01/04 07:56:54;;;;;;;3.70;1.17;;;5.80;99.90;;;;;;4918489;29;20044;-62
2024/01/04 07:59:22;;;;;;;3.50;1.10;;;5.80;99.90;;;;;;4901444;29;20063;-64
2024/01/04 08:01:49;;;;;;;2.65;0.88;;;5.70;99.90;;;;;;4917513;29;20055;-62
2024/01/04 08:04:15;;;;;;;3.13;0.93;;;5.70;99.90;;;;;;4901482;29;20083;-65
2024/01/04 08:06:41;;;;;;;4.25;1.23;;;5.70;99.90;;;;;;4916884;29;20056;-62
2024/01/04 08:09:11;;;;;;;5.57;1.35;;;5.70;99.90;;;;;;4918509;29;20056;-62
2024/01/04 08:11:39;;;;;;;4.50;1.02;;;5.70;99.90;;;;;;4917628;29;20048;-62
2024/01/04 08:14:07;;;;;;;3.10;1.00;;;5.80;99.90;;;;;;4901549;29;20184;-63
2024/01/04 08:16:33;;;;;;;4.03;1.30;;;5.80;99.90;;;;;;4917071;29;20048;-62
2024/01/04 08:19:00;;;;;;;3.45;1.10;;;5.70;99.90;;;;;;4918339;29;20063;-64
2024/01/04 08:21:26;;;;;;;3.33;1.27;;;5.70;99.90;;;;;;4917143;29;20056;-62
2024/01/04 08:23:52;;;;;;;5.07;1.23;;;5.80;99.90;;;;;;4917847;29;20060;-63
2024/01/04 08:26:19;;;;;;;2.83;1.23;;;5.80;99.90;;;;;;4916864;29;20074;-63
2024/01/04 08:28:45;;;;;;;3.60;1.20;;;5.80;99.90;;;;;;4918130;29;20342;-65
2024/01/04 08:31:12;;;;;;;4.22;1.30;;;5.80;99.90;;;;;;4917061;29;20062;-63
2024/01/04 08:33:38;;;;;;;3.30;1.77;;;5.80;99.90;;;;;;4901046;29;20060;-63
2024/01/04 08:36:05;;;;;;;5.57;1.40;;;5.80;99.90;;;;;;4916871;29;20099;-63
2024/01/04 08:38:32;;;;;;;5.15;1.40;;;5.80;99.90;;;;;;4916432;29;20052;-62
2024/01/04 08:41:01;;;;;;;3.38;1.30;;;5.80;99.90;;;;;;4916439;29;20115;-63
2024/01/04 08:43:28;;;;;;;2.85;1.08;;;5.90;99.90;;;;;;4900864;29;20461;-63
2024/01/04 08:45:54;;;;;;;4.70;1.52;;;5.90;99.90;;;;;;4916866;29;20090;-63
2024/01/04 08:48:21;;;;;;;3.45;1.17;;;5.90;99.90;;;;;;4916237;29;20063;-64
2024/01/04 08:50:47;;;;;;;3.92;1.88;;;6.00;99.90;;;;;;4916929;29;20058;-63
2024/01/04 08:53:20;;;;;;;4.35;1.38;;;6.00;99.90;;;;;;4916237;29;20380;-62
2024/01/04 08:55:48;;;;;;;2.85;1.30;;;6.00;99.90;;;;;;4900131;29;20066;-63
2024/01/04 08:58:15;;;;;;;5.43;1.30;;;6.00;99.90;;;;;;4916252;29;20052;-63
2024/01/04 09:00:42;;;;;;;3.60;1.15;;;6.00;99.90;;;;;;4917799;29;20052;-62
2024/01/04 09:03:08;;;;;;;5.68;1.20;;;6.00;99.90;;;;;;4899924;29;20052;-64
2024/01/04 09:05:34;;;;;;;2.30;1.20;;;6.00;99.90;;;;;;4913245;29;20075;-63
2024/01/04 09:08:01;;;;;;;4.18;1.65;;;6.00;99.90;;;;;;4916703;29;20056;-63
2024/01/04 09:10:28;;;;;;;2.95;1.30;;;6.00;99.90;;;;;;4900603;29;20059;-62
2024/01/04 09:12:57;;;;;;;3.78;1.23;;;5.90;99.90;;;;;;4900082;29;20040;-63
2024/01/04 09:15:25;;;;;;;3.08;1.27;;;5.90;99.90;;;;;;4916906;29;20061;-63
2024/01/04 09:17:51;;;;;;;4.28;1.38;;;6.00;99.90;;;;;;4915880;29;20063;-64
2024/01/04 09:20:19;;;;;;;4.97;1.33;;;5.90;99.90;;;;;;4916434;29;20048;-63
2024/01/04 09:22:47;;;;;;;5.13;1.40;;;6.00;99.90;;;;;;4917082;29;20066;-64
2024/01/04 09:25:15;;;;;;;2.10;1.25;;;6.00;99.90;;;;;;4900102;29;20055;-63
2024/01/04 09:27:41;;;;;;;3.13;1.67;;;6.00;99.90;;;;;;4899841;29;20066;-64
2024/01/04 09:30:09;;;;;;;3.20;1.25;;;6.00;99.90;;;;;;4916694;29;20488;-63
2024/01/04 09:32:35;;;;;;;3.13;1.40;;;6.10;99.90;;;;;;4915796;29;20063;-62
2024/01/04 09:35:01;;;;;;;4.47;1.30;;;6.00;99.90;;;;;;4899968;29;20056;-63
2024/01/04 09:37:28;;;;;;;3.97;1.45;;;6.00;99.90;;;;;;4915637;29;20064;-63
2024/01/04 09:39:55;;;;;;;3.72;1.08;;;6.00;99.90;;;;;;4915546;29;20145;-63
2024/01/04 09:42:23;;;;;;;3.88;1.15;;;6.00;99.90;;;;;;4916868;29;20056;-63
2024/01/04 09:44:53;;;;;;;2.50;1.33;;;6.10;99.90;;;;;;4915432;29;20056;-64
2024/01/04 09:47:23;;;;;;;4.18;1.20;;;6.10;99.90;;;;;;4915695;29;20071;-65
2024/01/04 09:49:51;;;;;;;3.10;1.27;;;6.00;99.90;;;;;;4916701;29;20052;-63
2024/01/04 09:52:18;;;;;;;4.50;1.10;;;6.10;99.90;;;;;;4916550;29;20083;-63
2024/01/04 09:54:47;;;;;;;4.78;1.40;;;6.10;99.90;;;;;;4916472;29;20048;-63
2024/01/04 09:57:14;;;;;;;3.78;1.13;;;6.00;99.90;;;;;;4916091;29;20418;-63
2024/01/04 09:59:41;;;;;;;2.13;0.95;;;6.00;99.90;;;;;;4916665;29;20680;-64
2024/01/04 10:02:11;;;;;;;2.25;1.08;;;6.00;99.90;;;;;;4915605;29;20077;-63
2024/01/04 10:04:41;;;;;;;2.22;1.17;;;6.00;99.90;;;;;;4916273;29;20418;-63
2024/01/04 10:07:13;;;;;;;3.78;1.20;;;6.00;99.90;;;;;;4915039;29;20060;-63
2024/01/04 10:10:00;;;;;;;3.88;1.30;;;6.10;99.90;;;;;;4916130;29;20060;-62
2024/01/04 10:12:32;;;;;;;2.60;0.80;;;6.10;99.90;;;;;;4915264;29;20052;-63
2024/01/04 10:14:59;;;;;;;3.72;1.27;;;6.00;99.90;;;;;;4935575;29;20059;-64
2024/01/04 10:17:25;;;;;;;3.83;1.20;;;6.10;99.90;;;;;;4914692;29;20048;-62
2024/01/04 10:19:51;;;;;;;2.95;1.33;;;6.20;99.90;;;;;;4915083;29;20052;-64
2024/01/04 10:22:22;;;;;;;2.33;1.00;;;6.20;99.90;;;;;;4915054;29;20060;-64
2024/01/04 10:24:51;;;;;;;1.80;0.85;;;6.20;99.90;;;;;;4914831;29;20056;-63
2024/01/04 10:27:17;;;;;;;2.45;1.02;;;6.30;99.90;;;;;;4915185;29;20066;-63
2024/01/04 10:29:48;;;;;;;3.75;1.38;;;6.40;99.90;;;;;;4914437;29;20389;-63
2024/01/04 10:32:14;;;;;;;2.40;1.15;;;6.40;99.90;;;;;;4947534;29;20732;-63
2024/01/04 10:34:41;;;;;;;5.32;1.20;;;6.40;99.90;;;;;;4915582;29;20062;-64
2024/01/04 10:37:12;;;;;;;2.33;1.10;;;6.40;99.90;;;;;;4914741;29;20052;-63
2024/01/04 10:39:46;;;;;;;2.33;1.00;;;6.50;99.90;;;;;;4915311;29;20047;-64
2024/01/04 10:42:13;;;;;;;4.03;1.33;;;6.40;99.90;;;;;;4915937;29;20696;-62
2024/01/04 10:44:39;;;;;;;3.35;1.40;;;6.50;99.90;;;;;;4915207;29;20063;-63
2024/01/04 10:47:09;;;;;;;2.20;1.20;;;6.50;99.90;;;;;;4914963;29;20059;-63
2024/01/04 10:49:40;;;;;;;3.65;1.20;;;6.60;99.90;;;;;;4915073;29;20283;-63
2024/01/04 10:52:13;;;;;;;2.90;1.25;;;6.60;99.90;;;;;;4914779;29;20469;-63
2024/01/04 10:54:41;;;;;;;2.83;1.40;;;6.60;99.90;;;;;;4898741;29;20174;-62
2024/01/04 11:00:21;;;;;;;2.75;1.10;;;6.70;99.90;;;;;;4916618;23;19932;-64
2024/01/04 11:02:50;;;;;;;2.92;1.30;;;6.70;99.90;;;;;;4879033;29;20057;-62
2024/01/04 11:05:17;;;;;;;4.15;1.33;;;6.70;99.90;;;;;;4861772;29;20488;-62
2024/01/04 11:07:45;;;;;;;4.55;1.40;;;6.70;99.90;;;;;;4864442;29;20497;-64
2024/01/04 11:10:13;;;;;;;3.10;1.10;;;6.60;99.90;;;;;;4866576;29;20053;-63
2024/01/04 11:12:41;;;;;;;3.90;1.50;;;6.70;99.90;;;;;;4873240;29;20057;-62
2024/01/04 11:15:12;;;;;;;2.70;1.30;;;6.60;99.90;;;;;;4874612;29;20061;-63
2024/01/04 11:18:00;;;;;;;2.50;1.35;;;6.50;99.90;;;;;;4869307;29;20489;-63
2024/01/04 11:20:52;;;;;;;4.68;1.73;;;6.50;99.90;;;;;;4865831;29;20049;-63
2024/01/04 11:23:54;;;;;;;2.90;1.25;;;6.50;99.90;;;;;;4866760;29;20057;-63
2024/01/04 11:26:27;;;;;;;4.05;0.98;;;6.60;99.90;;;;;;4871539;29;20076;-64
2024/01/04 11:28:56;;;;;;;7.05;1.50;;;6.60;99.90;;;;;;4865971;29;20053;-63
2024/01/04 11:31:24;;;;;;;3.67;1.30;;;6.70;99.90;;;;;;4862709;29;20056;-64
2024/01/04 11:33:51;;;;;;;5.72;1.73;;;6.70;99.90;;;;;;4879008;29;20063;-63
2024/01/04 11:36:19;;;;;;;2.67;1.10;;;6.80;99.90;;;;;;4858881;29;20056;-63
2024/01/04 11:38:49;;;;;;;2.72;1.08;;;6.80;99.90;;;;;;4881204;29;20048;-64
2024/01/04 11:41:15;;;;;;;3.97;1.20;;;6.80;99.90;;;;;;4849598;29;20061;-62
2024/01/04 11:43:49;;;;;;;4.35;1.17;;;6.90;99.90;;;;;;4870210;29;20207;-63
2024/01/04 11:46:23;;;;;;;3.95;1.23;;;7.00;99.90;;;;;;4871525;29;20069;-63
2024/01/04 11:49:05;;;;;;;3.38;1.15;;;6.90;99.90;;;;;;4861094;29;20072;-63
2024/01/04 11:51:45;;;;;;;6.85;1.40;;;6.90;99.90;;;;;;4877700;29;20052;-63
2024/01/04 11:54:20;;;;;;;3.92;1.33;;;6.80;99.90;;;;;;4873378;29;20125;-63
2024/01/04 11:56:48;;;;;;;2.78;1.48;;;6.90;99.90;;;;;;4861938;29;20139;-64
2024/01/04 11:59:21;;;;;;;4.18;1.65;;;6.90;99.90;;;;;;4874231;29;20041;-63
2024/01/04 12:01:48;;;;;;;3.40;1.40;;;6.90;99.90;;;;;;4882623;29;20063;-63
2024/01/04 12:04:15;;;;;;;3.65;1.65;;;6.90;99.90;;;;;;4872865;29;20057;-63
2024/01/04 12:06:44;;;;;;;3.25;1.75;;;6.80;99.90;;;;;;4873880;29;20073;-62
2024/01/04 12:09:17;;;;;;;3.75;1.50;;;6.70;99.90;;;;;;4870241;29;20068;-62
2024/01/04 12:11:53;;;;;;;5.05;1.10;;;6.80;99.90;;;;;;4875031;29;20061;-63
2024/01/04 12:14:20;;;;;;;3.08;1.30;;;6.80;99.90;;;;;;4877807;29;20060;-62
2024/01/04 12:16:47;;;;;;;3.35;1.33;;;6.90;99.90;;;;;;4882796;29;20059;-63
2024/01/04 12:19:14;;;;;;;2.53;1.20;;;6.90;99.90;;;;;;4864312;29;20144;-63
2024/01/04 12:21:41;;;;;;;2.72;1.20;;;7.00;99.90;;;;;;4865594;29;20050;-62
2024/01/04 12:24:07;;;;;;;3.70;1.30;;;6.90;99.90;;;;;;4871891;29;20374;-62
2024/01/04 12:26:34;;;;;;;2.47;1.20;;;6.90;99.90;;;;;;4874457;29;20056;-63
2024/01/04 12:29:01;;;;;;;2.45;1.23;;;7.00;99.90;;;;;;4869706;29;20045;-63
2024/01/04 12:31:29;;;;;;;3.58;1.50;;;6.90;99.90;;;;;;4864043;29;20373;-63
2024/01/04 12:33:58;;;;;;;2.67;1.20;;;6.90;99.90;;;;;;4858170;29;20061;-63
2024/01/04 12:36:24;;;;;;;2.90;1.20;;;6.90;99.90;;;;;;4876241;29;20132;-63
2024/01/04 12:38:52;;;;;;;2.42;1.10;;;6.90;99.90;;;;;;4879322;29;20049;-62
2024/01/04 12:41:27;;;;;;;3.00;1.20;;;6.80;99.90;;;;;;4879754;29;20053;-62
2024/01/04 12:43:54;;;;;;;2.55;1.20;;;6.80;99.90;;;;;;4872061;29;20084;-62
2024/01/04 12:46:22;;;;;;;2.78;1.20;;;6.70;99.90;;;;;;4894561;29;20049;-62
2024/01/04 12:48:51;;;;;;;2.40;1.20;;;6.70;99.90;;;;;;4879487;29;20063;-63
2024/01/04 12:51:28;;;;;;;3.25;1.20;;;6.70;99.90;;;;;;4879754;29;20064;-64
2024/01/04 12:53:54;;;;;;;3.13;1.50;;;6.80;99.90;;;;;;4874771;29;20049;-62
2024/01/04 12:56:21;;;;;;;3.33;1.45;;;6.80;99.90;;;;;;4862212;29;20080;-63
2024/01/04 12:58:49;;;;;;;3.55;1.58;;;6.80;99.90;;;;;;4860701;29;20370;-63
2024/01/04 13:01:16;;;;;;;3.92;1.60;;;6.80;99.90;;;;;;4845871;29;20053;-63
2024/01/04 13:03:42;;;;;;;3.05;1.10;;;6.80;99.90;;;;;;4846897;29;20069;-63